createdAt,value
2017-05-20T00:00:44.753Z,1010.1
2017-05-20T00:01:44.712Z,1010.12
2017-05-20T00:02:44.720Z,1010.17
2017-05-20T00:03:44.728Z,1010.17
2017-05-20T00:04:44.736Z,1010.23
2017-05-20T00:05:44.745Z,1010.19
2017-05-20T00:06:44.753Z,1010.19
2017-05-20T00:07:44.761Z,1010.19
2017-05-20T00:08:44.818Z,1010.18
2017-05-20T00:09:44.776Z,1010.19
2017-05-20T00:10:44.833Z,1010.17
2017-05-20T00:11:44.792Z,1010.17
2017-05-20T00:12:44.801Z,1010.18
2017-05-20T00:13:44.809Z,1010.16
2017-05-20T00:14:44.817Z,1010.19
2017-05-20T00:15:44.825Z,1010.2
2017-05-20T00:16:44.833Z,1010.21
2017-05-20T00:17:44.841Z,1010.2
2017-05-20T00:18:44.848Z,1010.22
2017-05-20T00:19:44.858Z,1010.25
2017-05-20T00:20:44.867Z,1010.24
2017-05-20T00:21:44.873Z,1010.26
2017-05-20T00:22:44.933Z,1010.21
2017-05-20T00:23:44.942Z,1010.21
2017-05-20T00:24:44.949Z,1010.2
2017-05-20T00:25:44.906Z,1010.19
2017-05-20T00:26:44.914Z,1010.22
2017-05-20T00:27:44.921Z,1010.18
2017-05-20T00:28:44.933Z,1010.21
2017-05-20T00:29:44.940Z,1010.23
2017-05-20T00:30:44.947Z,1010.19
2017-05-20T00:31:44.955Z,1010.16
2017-05-20T00:32:44.963Z,1010.2
2017-05-20T00:33:44.972Z,1010.19
2017-05-20T00:34:44.980Z,1010.21
2017-05-20T00:35:44.989Z,1010.24
2017-05-20T00:36:45.044Z,1010.26
2017-05-20T00:37:45.003Z,1010.28
2017-05-20T00:38:45.013Z,1010.26
2017-05-20T00:39:45.018Z,1010.25
2017-05-20T00:40:45.026Z,1010.24
2017-05-20T00:41:45.036Z,1010.19
2017-05-20T00:42:45.042Z,1010.18
2017-05-20T00:43:45.053Z,1010.25
2017-05-20T00:44:45.061Z,1010.24
2017-05-20T00:45:45.068Z,1010.3
2017-05-20T00:46:45.075Z,1010.23
2017-05-20T00:47:45.084Z,1010.21
2017-05-20T00:48:45.093Z,1010.28
2017-05-20T00:49:45.100Z,1010.27
2017-05-20T00:50:45.158Z,1010.27
2017-05-20T00:51:45.116Z,1010.27
2017-05-20T00:52:45.124Z,1010.29
2017-05-20T00:53:45.132Z,1010.27
2017-05-20T00:54:45.140Z,1010.19
2017-05-20T00:55:45.149Z,1010.2
2017-05-20T00:56:45.206Z,1010.14
2017-05-20T00:57:45.163Z,1010.13
2017-05-20T00:58:45.172Z,1010.13
2017-05-20T00:59:45.180Z,1010.17
2017-05-20T01:00:45.188Z,1010.19
2017-05-20T01:01:45.195Z,1010.17
2017-05-20T01:02:45.204Z,1010.11
2017-05-20T01:03:45.212Z,1010.14
2017-05-20T01:04:45.220Z,1010.13
2017-05-20T01:05:45.226Z,1010.12
2017-05-20T01:06:45.235Z,1010.09
2017-05-20T01:07:45.244Z,1010.1
2017-05-20T01:08:45.253Z,1010.09
2017-05-20T01:09:45.261Z,1010.1
2017-05-20T01:10:45.267Z,1010.12
2017-05-20T01:11:45.276Z,1010.12
2017-05-20T01:12:45.282Z,1010.09
2017-05-20T01:13:45.293Z,1010.07
2017-05-20T01:14:45.300Z,1010.05
2017-05-20T01:15:45.308Z,1010.06
2017-05-20T01:16:45.316Z,1010.1
2017-05-20T01:17:45.324Z,1010.12
2017-05-20T01:18:45.333Z,1010.16
2017-05-20T01:19:45.340Z,1010.1
2017-05-20T01:20:45.345Z,1010.11
2017-05-20T01:21:45.355Z,1010.14
2017-05-20T01:22:45.364Z,1010.18
2017-05-20T01:23:45.371Z,1010.21
2017-05-20T01:24:45.428Z,1010.2
2017-05-20T01:25:45.438Z,1010.21
2017-05-20T01:26:45.395Z,1010.2
2017-05-20T01:27:45.402Z,1010.18
2017-05-20T01:28:45.411Z,1010.21
2017-05-20T01:29:45.417Z,1010.22
2017-05-20T01:30:45.427Z,1010.23
2017-05-20T01:31:45.483Z,1010.3
2017-05-20T01:32:45.442Z,1010.31
2017-05-20T01:33:45.451Z,1010.26
2017-05-20T01:34:45.457Z,1010.28
2017-05-20T01:35:45.466Z,1010.31
2017-05-20T01:36:45.525Z,1010.32
2017-05-20T01:37:45.482Z,1010.35
2017-05-20T01:38:45.495Z,1010.33
2017-05-20T01:39:45.498Z,1010.35
2017-05-20T01:40:45.555Z,1010.32
2017-05-20T01:41:45.513Z,1010.36
2017-05-20T01:42:45.521Z,1010.32
2017-05-20T01:43:45.529Z,1010.36
2017-05-20T01:44:45.538Z,1010.31
2017-05-20T01:45:45.544Z,1010.34
2017-05-20T01:46:45.553Z,1010.31
2017-05-20T01:47:45.562Z,1010.32
2017-05-20T01:48:45.570Z,1010.27
2017-05-20T01:49:45.577Z,1010.28
2017-05-20T01:50:45.585Z,1010.29
2017-05-20T01:51:45.593Z,1010.33
2017-05-20T01:52:45.601Z,1010.33
2017-05-20T01:53:45.658Z,1010.31
2017-05-20T01:54:45.616Z,1010.31
2017-05-20T01:55:45.625Z,1010.31
2017-05-20T01:56:45.633Z,1010.3
2017-05-20T01:57:45.639Z,1010.32
2017-05-20T01:58:45.697Z,1010.36
2017-05-20T01:59:45.655Z,1010.34
2017-05-20T02:00:45.662Z,1010.32
2017-05-20T02:01:45.669Z,1010.31
2017-05-20T02:02:45.729Z,1010.34
2017-05-20T02:03:45.687Z,1010.33
2017-05-20T02:04:45.695Z,1010.34
2017-05-20T02:05:45.702Z,1010.38
2017-05-20T02:06:45.711Z,1010.4
2017-05-20T02:07:45.719Z,1010.42
2017-05-20T02:08:45.726Z,1010.42
2017-05-20T02:09:45.734Z,1010.43
2017-05-20T02:10:45.743Z,1010.43
2017-05-20T02:11:45.749Z,1010.43
2017-05-20T02:12:45.758Z,1010.45
2017-05-20T02:13:45.767Z,1010.45
2017-05-20T02:14:45.772Z,1010.48
2017-05-20T02:15:45.780Z,1010.51
2017-05-20T02:16:45.789Z,1010.5
2017-05-20T02:17:45.796Z,1010.49
2017-05-20T02:18:45.803Z,1010.51
2017-05-20T02:19:45.811Z,1010.51
2017-05-20T02:20:45.819Z,1010.53
2017-05-20T02:21:45.828Z,1010.53
2017-05-20T02:22:45.833Z,1010.52
2017-05-20T02:23:45.894Z,1010.54
2017-05-20T02:24:45.851Z,1010.49
2017-05-20T02:25:45.859Z,1010.5
2017-05-20T02:26:45.916Z,1010.48
2017-05-20T02:27:45.874Z,1010.51
2017-05-20T02:28:45.882Z,1010.49
2017-05-20T02:29:45.887Z,1010.5
2017-05-20T02:30:45.896Z,1010.48
2017-05-20T02:31:45.906Z,1010.48
2017-05-20T02:32:45.914Z,1010.44
2017-05-20T02:33:45.919Z,1010.51
2017-05-20T02:34:45.927Z,1010.46
2017-05-20T02:35:45.934Z,1010.51
2017-05-20T02:36:45.943Z,1010.52
2017-05-20T02:37:45.952Z,1010.52
2017-05-20T02:38:45.959Z,1010.48
2017-05-20T02:39:45.967Z,1010.51
2017-05-20T02:40:45.975Z,1010.51
2017-05-20T02:41:45.981Z,1010.54
2017-05-20T02:42:45.991Z,1010.48
2017-05-20T02:43:45.999Z,1010.51
2017-05-20T02:44:46.007Z,1010.52
2017-05-20T02:45:46.014Z,1010.51
2017-05-20T02:46:46.022Z,1010.49
2017-05-20T02:47:46.029Z,1010.49
2017-05-20T02:48:46.037Z,1010.51
2017-05-20T02:49:46.046Z,1010.51
2017-05-20T02:50:46.053Z,1010.52
2017-05-20T02:51:46.060Z,1010.52
2017-05-20T02:52:46.068Z,1010.55
2017-05-20T02:53:46.075Z,1010.55
2017-05-20T02:54:46.083Z,1010.49
2017-05-20T02:55:46.091Z,1010.54
2017-05-20T02:56:46.100Z,1010.55
2017-05-20T02:57:46.107Z,1010.52
2017-05-20T02:58:46.113Z,1010.54
2017-05-20T02:59:46.124Z,1010.54
2017-05-20T03:00:46.130Z,1010.57
2017-05-20T03:01:46.139Z,1010.58
2017-05-20T03:02:46.195Z,1010.61
2017-05-20T03:03:46.154Z,1010.62
2017-05-20T03:04:46.161Z,1010.6
2017-05-20T03:05:46.170Z,1010.6
2017-05-20T03:06:46.177Z,1010.55
2017-05-20T03:07:46.186Z,1010.56
2017-05-20T03:08:46.242Z,1010.56
2017-05-20T03:09:46.197Z,1010.57
2017-05-20T03:10:46.206Z,1010.57
2017-05-20T03:11:46.215Z,1010.53
2017-05-20T03:12:46.229Z,1010.54
2017-05-20T03:13:46.230Z,1010.51
2017-05-20T03:14:46.238Z,1010.51
2017-05-20T03:15:46.246Z,1010.55
2017-05-20T03:16:46.254Z,1010.59
2017-05-20T03:17:46.262Z,1010.62
2017-05-20T03:18:46.269Z,1010.62
2017-05-20T03:19:46.278Z,1010.64
2017-05-20T03:20:46.285Z,1010.63
2017-05-20T03:21:46.343Z,1010.65
2017-05-20T03:22:46.300Z,1010.64
2017-05-20T03:23:46.309Z,1010.64
2017-05-20T03:24:46.366Z,1010.7
2017-05-20T03:25:46.324Z,1010.75
2017-05-20T03:26:46.381Z,1010.75
2017-05-20T03:27:46.340Z,1010.76
2017-05-20T03:28:46.348Z,1010.75
2017-05-20T03:29:46.355Z,1010.8
2017-05-20T03:30:46.364Z,1010.79
2017-05-20T03:31:46.370Z,1010.82
2017-05-20T03:32:46.379Z,1010.88
2017-05-20T03:33:46.385Z,1010.9
2017-05-20T03:34:46.392Z,1010.89
2017-05-20T03:35:46.400Z,1010.92
2017-05-20T03:36:46.410Z,1010.95
2017-05-20T03:37:46.417Z,1010.91
2017-05-20T03:38:46.425Z,1010.96
2017-05-20T03:39:46.434Z,1010.93
2017-05-20T03:40:46.442Z,1010.92
2017-05-20T03:41:46.448Z,1010.96
2017-05-20T03:42:46.455Z,1010.97
2017-05-20T03:43:46.464Z,1010.99
2017-05-20T03:44:46.471Z,1010.96
2017-05-20T03:45:46.480Z,1010.98
2017-05-20T03:46:46.485Z,1010.99
2017-05-20T03:47:46.543Z,1011.03
2017-05-20T03:48:46.502Z,1011.04
2017-05-20T03:49:46.510Z,1011.07
2017-05-20T03:50:46.517Z,1011.07
2017-05-20T03:51:46.524Z,1011.11
2017-05-20T03:52:46.533Z,1011.11
2017-05-20T03:53:46.540Z,1011.1
2017-05-20T03:54:46.548Z,1011.13
2017-05-20T03:55:46.556Z,1011.11
2017-05-20T03:56:46.564Z,1011.12
2017-05-20T03:57:46.573Z,1011.15
2017-05-20T03:58:46.630Z,1011.12
2017-05-20T03:59:46.587Z,1011.16
2017-05-20T04:00:46.647Z,1011.14
2017-05-20T04:01:46.602Z,1011.13
2017-05-20T04:02:46.610Z,1011.09
2017-05-20T04:03:46.619Z,1011.16
2017-05-20T04:04:46.626Z,1011.13
2017-05-20T04:05:46.632Z,1011.13
2017-05-20T04:06:46.642Z,1011.17
2017-05-20T04:07:46.649Z,1011.15
2017-05-20T04:08:46.711Z,1011.17
2017-05-20T04:09:46.662Z,1011.17
2017-05-20T04:10:46.672Z,1011.18
2017-05-20T04:11:46.678Z,1011.17
2017-05-20T04:12:46.687Z,1011.19
2017-05-20T04:13:46.697Z,1011.18
2017-05-20T04:14:46.703Z,1011.22
2017-05-20T04:15:46.712Z,1011.21
2017-05-20T04:16:46.718Z,1011.23
2017-05-20T04:17:46.728Z,1011.26
2017-05-20T04:18:46.736Z,1011.29
2017-05-20T04:19:46.791Z,1011.25
2017-05-20T04:20:46.749Z,1011.26
2017-05-20T04:21:46.757Z,1011.31
2017-05-20T04:22:46.763Z,1011.33
2017-05-20T04:23:46.772Z,1011.32
2017-05-20T04:24:46.781Z,1011.34
2017-05-20T04:25:46.789Z,1011.34
2017-05-20T04:26:46.795Z,1011.38
2017-05-20T04:27:46.803Z,1011.42
2017-05-20T04:28:46.810Z,1011.43
2017-05-20T04:29:46.819Z,1011.51
2017-05-20T04:30:46.827Z,1011.57
2017-05-20T04:31:46.834Z,1011.54
2017-05-20T04:32:46.842Z,1011.59
2017-05-20T04:33:46.850Z,1011.6
2017-05-20T04:34:46.858Z,1011.57
2017-05-20T04:35:46.865Z,1011.56
2017-05-20T04:36:46.873Z,1011.55
2017-05-20T04:37:46.880Z,1011.59
2017-05-20T04:38:46.887Z,1011.6
2017-05-20T04:39:46.895Z,1011.62
2017-05-20T04:40:46.905Z,1011.62
2017-05-20T04:41:46.912Z,1011.58
2017-05-20T04:42:46.920Z,1011.55
2017-05-20T04:43:46.929Z,1011.57
2017-05-20T04:44:46.936Z,1011.57
2017-05-20T04:45:46.943Z,1011.58
2017-05-20T04:46:47.004Z,1011.59
2017-05-20T04:47:46.961Z,1011.61
2017-05-20T04:48:47.016Z,1011.63
2017-05-20T04:49:46.975Z,1011.65
2017-05-20T04:50:46.983Z,1011.65
2017-05-20T04:51:46.992Z,1011.69
2017-05-20T04:52:47.000Z,1011.68
2017-05-20T04:53:47.007Z,1011.73
2017-05-20T04:54:47.015Z,1011.72
2017-05-20T04:55:47.021Z,1011.74
2017-05-20T04:56:47.030Z,1011.78
2017-05-20T04:57:47.038Z,1011.78
2017-05-20T04:58:47.046Z,1011.84
2017-05-20T04:59:47.054Z,1011.83
2017-05-20T05:00:47.062Z,1011.82
2017-05-20T05:01:47.069Z,1011.88
2017-05-20T05:02:47.077Z,1011.87
2017-05-20T05:03:47.134Z,1011.91
2017-05-20T05:04:47.092Z,1011.93
2017-05-20T05:05:47.101Z,1011.95
2017-05-20T05:06:47.109Z,1011.94
2017-05-20T05:07:47.120Z,1011.98
2017-05-20T05:08:47.125Z,1011.98
2017-05-20T05:09:47.133Z,1012
2017-05-20T05:10:47.139Z,1012.04
2017-05-20T05:11:47.148Z,1012.08
2017-05-20T05:12:47.158Z,1012.1
2017-05-20T05:13:47.164Z,1012.19
2017-05-20T05:14:47.172Z,1012.1
2017-05-20T05:15:47.180Z,1012.29
2017-05-20T05:16:47.189Z,1012.4
2017-05-20T05:17:47.197Z,1012.54
2017-05-20T05:18:47.203Z,1012.51
2017-05-20T05:19:47.265Z,1012.18
2017-05-20T05:20:47.221Z,1012.09
2017-05-20T05:21:47.230Z,1012.13
2017-05-20T05:22:47.237Z,1012.44
2017-05-20T05:23:47.248Z,1012.24
2017-05-20T05:24:47.255Z,1012.58
2017-05-20T05:25:47.263Z,1012.2
2017-05-20T05:26:47.570Z,1012.25
2017-05-20T05:27:47.330Z,1012.69
2017-05-20T05:28:47.287Z,1012.52
2017-05-20T05:29:47.296Z,1012.73
2017-05-20T05:30:47.306Z,1012.41
2017-05-20T05:31:47.315Z,1012.3
2017-05-20T05:32:47.323Z,1012.25
2017-05-20T05:33:47.333Z,1012.49
2017-05-20T05:34:47.342Z,1012.61
2017-05-20T05:35:47.349Z,1012.54
2017-05-20T05:36:47.359Z,1012.26
2017-05-20T05:37:47.366Z,1012.38
2017-05-20T05:38:47.375Z,1012.23
2017-05-20T05:39:47.384Z,1012.22
2017-05-20T05:40:47.392Z,1012.2
2017-05-20T05:41:47.402Z,1012.23
2017-05-20T05:42:47.410Z,1012.23
2017-05-20T05:43:47.418Z,1012.22
2017-05-20T05:44:47.476Z,1012.3
2017-05-20T05:45:47.435Z,1012.28
2017-05-20T05:46:47.444Z,1012.28
2017-05-20T05:47:47.452Z,1012.3
2017-05-20T05:48:47.460Z,1012.3
2017-05-20T05:49:47.468Z,1012.37
2017-05-20T05:50:47.478Z,1012.33
2017-05-20T05:51:47.483Z,1013.04
2017-05-20T05:52:47.493Z,1013.04
2017-05-20T05:53:47.552Z,1013.11
2017-05-20T05:54:47.511Z,1013.12
2017-05-20T05:55:47.520Z,1013.18
2017-05-20T05:56:47.529Z,1013.22
2017-05-20T05:57:47.586Z,1013.26
2017-05-20T05:58:47.548Z,1013.31
2017-05-20T05:59:47.557Z,1013.36
2017-05-20T06:00:47.567Z,1013.41
2017-05-20T06:01:47.575Z,1013.42
2017-05-20T06:02:47.636Z,1013.48
2017-05-20T06:03:47.598Z,1013.46
2017-05-20T06:04:47.607Z,1013.57
2017-05-20T06:05:47.616Z,1013.57
2017-05-20T06:06:47.626Z,1013.6
2017-05-20T06:07:47.639Z,1013.61
2017-05-20T06:08:47.646Z,1013.28
2017-05-20T06:09:47.656Z,1013.74
2017-05-20T06:10:47.667Z,1013.81
2017-05-20T06:11:47.677Z,1013.79
2017-05-20T06:12:47.687Z,1013.86
2017-05-20T06:13:47.697Z,1013.88
2017-05-20T06:14:47.709Z,1013.86
2017-05-20T06:15:47.719Z,1013.89
2017-05-20T06:16:47.730Z,1013.94
2017-05-20T06:17:47.741Z,1013.97
2017-05-20T06:18:47.751Z,1013.98
2017-05-20T06:19:47.761Z,1013.95
2017-05-20T06:20:47.772Z,1013.92
2017-05-20T06:21:47.835Z,1013.96
2017-05-20T06:22:47.794Z,1014.01
2017-05-20T06:23:47.806Z,1014
2017-05-20T06:24:47.817Z,1014.04
2017-05-20T06:25:47.827Z,1014.06
2017-05-20T06:26:47.840Z,1014.11
2017-05-20T06:27:47.850Z,1014.16
2017-05-20T06:28:47.860Z,1014.22
2017-05-20T06:29:47.873Z,1014.24
2017-05-20T06:30:47.882Z,1014.27
2017-05-20T06:31:47.894Z,1014.38
2017-05-20T06:32:47.905Z,1014.42
2017-05-20T06:33:47.916Z,1014.45
2017-05-20T06:34:47.928Z,1014.5
2017-05-20T06:35:47.939Z,1014.51
2017-05-20T06:36:48.151Z,1014.49
2017-05-20T06:37:48.013Z,1014.36
2017-05-20T06:38:47.974Z,1014.35
2017-05-20T06:39:47.984Z,1014.45
2017-05-20T06:40:47.995Z,1014.57
2017-05-20T06:41:48.007Z,1014.59
2017-05-20T06:42:48.020Z,1014.68
2017-05-20T06:43:48.032Z,1014.78
2017-05-20T06:44:48.042Z,1014.87
2017-05-20T06:45:48.054Z,1014.92
2017-05-20T06:46:48.065Z,1014.91
2017-05-20T06:47:48.078Z,1014.9
2017-05-20T06:48:48.090Z,1014.83
2017-05-20T06:49:48.104Z,1014.78
2017-05-20T06:50:48.114Z,1014.83
2017-05-20T06:51:48.127Z,1014.92
2017-05-20T06:52:48.138Z,1014.99
2017-05-20T06:53:48.150Z,1014.99
2017-05-20T06:54:48.160Z,1015.03
2017-05-20T06:55:48.173Z,1015.05
2017-05-20T06:56:48.184Z,1015.02
2017-05-20T06:57:48.197Z,1014.89
2017-05-20T06:58:48.208Z,1014.91
2017-05-20T06:59:48.219Z,1014.92
2017-05-20T07:00:48.230Z,1014.92
2017-05-20T07:01:48.243Z,1014.89
2017-05-20T07:02:48.255Z,1014.88
2017-05-20T07:03:48.268Z,1014.84
2017-05-20T07:04:48.279Z,1014.79
2017-05-20T07:05:48.291Z,1014.83
2017-05-20T07:06:48.303Z,1014.82
2017-05-20T07:07:48.314Z,1014.77
2017-05-20T07:08:48.326Z,1014.81
2017-05-20T07:09:48.338Z,1014.79
2017-05-20T07:10:48.399Z,1014.76
2017-05-20T07:11:48.360Z,1014.75
2017-05-20T07:12:48.374Z,1014.8
2017-05-20T07:13:48.391Z,1014.74
2017-05-20T07:14:48.397Z,1014.73
2017-05-20T07:15:48.459Z,1014.73
2017-05-20T07:16:48.722Z,1014.68
2017-05-20T07:17:48.435Z,1014.63
2017-05-20T07:18:48.445Z,1014.74
2017-05-20T07:19:48.459Z,1014.75
2017-05-20T07:20:48.470Z,1014.75
2017-05-20T07:21:48.480Z,1014.67
2017-05-20T07:22:48.493Z,1014.68
2017-05-20T07:23:48.505Z,1014.72
2017-05-20T07:24:48.568Z,1014.63
2017-05-20T07:25:48.530Z,1014.65
2017-05-20T07:26:48.541Z,1014.64
2017-05-20T07:27:48.554Z,1014.62
2017-05-20T07:28:48.617Z,1014.53
2017-05-20T07:29:48.629Z,1014.63
2017-05-20T07:30:48.590Z,1014.55
2017-05-20T07:31:48.604Z,1014.18
2017-05-20T07:32:48.664Z,1013.8
2017-05-20T07:33:48.626Z,1013.63
2017-05-20T07:34:48.639Z,1013.6
2017-05-20T07:35:48.650Z,1013.58
2017-05-20T07:36:48.659Z,1013.67
2017-05-20T07:37:48.672Z,1013.65
2017-05-20T07:38:48.682Z,1013.65
2017-05-20T07:39:48.692Z,1013.68
2017-05-20T07:40:48.701Z,1013.61
2017-05-20T07:41:48.711Z,1013.66
2017-05-20T07:42:48.772Z,1013.65
2017-05-20T07:43:48.730Z,1013.61
2017-05-20T07:44:48.741Z,1013.64
2017-05-20T07:45:48.750Z,1013.64
2017-05-20T07:46:48.760Z,1013.58
2017-05-20T07:47:48.769Z,1013.58
2017-05-20T07:48:48.829Z,1013.61
2017-05-20T07:49:48.788Z,1013.59
2017-05-20T07:50:48.798Z,1013.6
2017-05-20T07:51:48.806Z,1013.58
2017-05-20T07:52:48.817Z,1013.61
2017-05-20T07:53:48.877Z,1013.62
2017-05-20T07:54:48.833Z,1013.59
2017-05-20T07:55:48.844Z,1013.59
2017-05-20T07:56:48.853Z,1013.62
2017-05-20T07:57:48.862Z,1013.63
2017-05-20T07:58:48.870Z,1013.61
2017-05-20T07:59:48.880Z,1013.57
2017-05-20T08:00:48.940Z,1013.6
2017-05-20T08:01:48.898Z,1013.63
2017-05-20T08:02:48.908Z,1013.63
2017-05-20T08:03:48.917Z,1013.69
2017-05-20T08:04:48.926Z,1013.63
2017-05-20T08:05:48.933Z,1013.66
2017-05-20T08:06:48.943Z,1013.69
2017-05-20T08:07:48.952Z,1013.72
2017-05-20T08:08:48.962Z,1013.7
2017-05-20T08:09:48.969Z,1013.75
2017-05-20T08:10:48.981Z,1013.75
2017-05-20T08:11:49.038Z,1013.73
2017-05-20T08:12:48.997Z,1013.76
2017-05-20T08:13:49.006Z,1013.76
2017-05-20T08:14:49.016Z,1013.75
2017-05-20T08:15:49.024Z,1013.81
2017-05-20T08:16:49.032Z,1013.79
2017-05-20T08:17:49.041Z,1013.84
2017-05-20T08:18:49.050Z,1013.79
2017-05-20T08:19:49.059Z,1013.78
2017-05-20T08:20:49.067Z,1013.84
2017-05-20T08:21:49.077Z,1013.8
2017-05-20T08:22:49.085Z,1013.83
2017-05-20T08:23:49.094Z,1013.84
2017-05-20T08:24:49.103Z,1013.86
2017-05-20T08:25:49.113Z,1013.87
2017-05-20T08:26:49.123Z,1013.86
2017-05-20T08:27:49.130Z,1013.88
2017-05-20T08:28:49.138Z,1013.9
2017-05-20T08:29:49.148Z,1013.87
2017-05-20T08:30:49.157Z,1013.91
2017-05-20T08:31:49.165Z,1013.91
2017-05-20T08:32:49.175Z,1013.92
2017-05-20T08:33:49.183Z,1013.92
2017-05-20T08:34:49.192Z,1013.92
2017-05-20T08:35:49.200Z,1013.88
2017-05-20T08:36:49.209Z,1013.92
2017-05-20T08:37:49.216Z,1013.9
2017-05-20T08:38:49.277Z,1013.93
2017-05-20T08:39:49.236Z,1013.91
2017-05-20T08:40:49.243Z,1013.91
2017-05-20T08:41:49.252Z,1013.93
2017-05-20T08:42:49.261Z,1013.95
2017-05-20T08:43:49.269Z,1014
2017-05-20T08:44:49.277Z,1013.95
2017-05-20T08:45:49.336Z,1013.98
2017-05-20T08:46:49.296Z,1014
2017-05-20T08:47:49.304Z,1013.98
2017-05-20T08:48:49.313Z,1013.98
2017-05-20T08:49:49.318Z,1013.93
2017-05-20T08:50:49.329Z,1013.99
2017-05-20T08:51:49.339Z,1013.96
2017-05-20T08:52:49.349Z,1014
2017-05-20T08:53:49.357Z,1013.97
2017-05-20T08:54:49.363Z,1014.01
2017-05-20T08:55:49.423Z,1013.97
2017-05-20T08:56:49.381Z,1014.05
2017-05-20T08:57:49.390Z,1014.03
2017-05-20T08:58:49.450Z,1014.07
2017-05-20T08:59:49.407Z,1014.07
2017-05-20T09:00:49.415Z,1014.04
2017-05-20T09:01:49.425Z,1014.05
2017-05-20T09:02:49.433Z,1014.05
2017-05-20T09:03:49.442Z,1014.03
2017-05-20T09:04:49.450Z,1014.06
2017-05-20T09:05:49.459Z,1014.1
2017-05-20T09:06:49.468Z,1014.07
2017-05-20T09:07:49.475Z,1014.11
2017-05-20T09:08:49.485Z,1014.16
2017-05-20T09:09:49.493Z,1014.13
2017-05-20T09:10:49.503Z,1014.19
2017-05-20T09:11:49.510Z,1014.2
2017-05-20T09:12:49.520Z,1014.17
2017-05-20T09:13:49.529Z,1014.22
2017-05-20T09:14:49.537Z,1014.16
2017-05-20T09:15:49.546Z,1014.15
2017-05-20T09:16:49.554Z,1014.17
2017-05-20T09:17:49.566Z,1014.2
2017-05-20T09:18:49.570Z,1014.24
2017-05-20T09:19:49.580Z,1014.23
2017-05-20T09:20:49.589Z,1014.24
2017-05-20T09:21:49.597Z,1014.25
2017-05-20T09:22:49.606Z,1014.23
2017-05-20T09:23:49.667Z,1014.28
2017-05-20T09:24:49.621Z,1014.29
2017-05-20T09:25:49.682Z,1014.33
2017-05-20T09:26:49.638Z,1014.36
2017-05-20T09:27:49.648Z,1014.38
2017-05-20T09:28:49.706Z,1014.38
2017-05-20T09:29:49.664Z,1014.37
2017-05-20T09:30:49.674Z,1014.37
2017-05-20T09:31:49.682Z,1014.36
2017-05-20T09:32:49.692Z,1014.32
2017-05-20T09:33:49.697Z,1014.35
2017-05-20T09:34:49.705Z,1014.33
2017-05-20T09:35:49.716Z,1014.35
2017-05-20T09:36:49.724Z,1014.32
2017-05-20T09:37:49.781Z,1014.39
2017-05-20T09:38:49.740Z,1014.4
2017-05-20T09:39:49.749Z,1014.38
2017-05-20T09:40:49.756Z,1014.42
2017-05-20T09:41:49.764Z,1014.41
2017-05-20T09:42:49.775Z,1014.43
2017-05-20T09:43:49.782Z,1014.39
2017-05-20T09:44:49.791Z,1014.46
2017-05-20T09:45:49.799Z,1014.41
2017-05-20T09:46:49.810Z,1014.42
2017-05-20T09:47:49.869Z,1014.42
2017-05-20T09:48:49.824Z,1014.43
2017-05-20T09:49:49.883Z,1014.47
2017-05-20T09:50:49.842Z,1014.47
2017-05-20T09:51:49.899Z,1014.52
2017-05-20T09:52:49.871Z,1014.5
2017-05-20T09:53:49.866Z,1014.59
2017-05-20T09:54:49.874Z,1014.58
2017-05-20T09:55:49.883Z,1014.62
2017-05-20T09:56:49.891Z,1014.6
2017-05-20T09:57:49.900Z,1014.61
2017-05-20T09:58:49.908Z,1014.59
2017-05-20T09:59:49.966Z,1014.61
2017-05-20T10:00:49.975Z,1014.64
2017-05-20T10:01:49.933Z,1014.62
2017-05-20T10:02:49.993Z,1014.66
2017-05-20T10:03:49.950Z,1014.68
2017-05-20T10:04:49.959Z,1014.7
2017-05-20T10:05:49.966Z,1014.73
2017-05-20T10:06:49.975Z,1014.7
2017-05-20T10:07:49.985Z,1014.74
2017-05-20T10:08:49.993Z,1014.72
2017-05-20T10:09:50.000Z,1014.73
2017-05-20T10:10:50.009Z,1014.79
2017-05-20T10:11:50.019Z,1014.77
2017-05-20T10:12:50.027Z,1014.75
2017-05-20T10:13:50.034Z,1014.77
2017-05-20T10:14:50.043Z,1014.76
2017-05-20T10:15:50.101Z,1014.79
2017-05-20T10:16:50.059Z,1014.8
2017-05-20T10:17:50.068Z,1014.74
2017-05-20T10:18:50.078Z,1014.78
2017-05-20T10:19:50.085Z,1014.74
2017-05-20T10:20:50.093Z,1014.74
2017-05-20T10:21:50.103Z,1014.76
2017-05-20T10:22:50.110Z,1014.77
2017-05-20T10:23:50.118Z,1014.73
2017-05-20T10:24:50.127Z,1014.71
2017-05-20T10:25:50.136Z,1014.7
2017-05-20T10:26:50.145Z,1014.74
2017-05-20T10:27:50.153Z,1014.7
2017-05-20T10:28:50.160Z,1014.73
2017-05-20T10:29:50.170Z,1014.75
2017-05-20T10:30:50.178Z,1014.74
2017-05-20T10:31:50.186Z,1014.75
2017-05-20T10:32:50.196Z,1014.71
2017-05-20T10:33:50.204Z,1014.7
2017-05-20T10:34:50.213Z,1014.72
2017-05-20T10:35:50.221Z,1014.67
2017-05-20T10:36:50.229Z,1014.67
2017-05-20T10:37:50.237Z,1014.76
2017-05-20T10:38:50.246Z,1014.79
2017-05-20T10:39:50.256Z,1014.83
2017-05-20T10:40:50.263Z,1014.79
2017-05-20T10:41:50.272Z,1014.85
2017-05-20T10:42:50.278Z,1014.88
2017-05-20T10:43:50.287Z,1014.83
2017-05-20T10:44:50.296Z,1014.84
2017-05-20T10:45:50.304Z,1014.8
2017-05-20T10:46:50.311Z,1014.86
2017-05-20T10:47:50.371Z,1014.84
2017-05-20T10:48:50.330Z,1014.81
2017-05-20T10:49:50.389Z,1014.85
2017-05-20T10:50:50.347Z,1014.79
2017-05-20T10:51:50.356Z,1014.91
2017-05-20T10:52:50.413Z,1014.87
2017-05-20T10:53:50.372Z,1014.82
2017-05-20T10:54:50.428Z,1014.82
2017-05-20T10:55:50.389Z,1014.77
2017-05-20T10:56:50.399Z,1014.76
2017-05-20T10:57:50.407Z,1014.78
2017-05-20T10:58:50.487Z,1014.83
2017-05-20T10:59:50.423Z,1014.83
2017-05-20T11:00:50.433Z,1014.79
2017-05-20T11:01:50.441Z,1014.81
2017-05-20T11:02:50.451Z,1014.81
2017-05-20T11:03:50.460Z,1014.86
2017-05-20T11:04:50.466Z,1014.94
2017-05-20T11:05:50.475Z,1014.89
2017-05-20T11:06:50.484Z,1014.98
2017-05-20T11:07:50.544Z,1014.91
2017-05-20T11:08:50.500Z,1014.96
2017-05-20T11:09:50.511Z,1014.91
2017-05-20T11:10:50.521Z,1014.96
2017-05-20T11:11:50.526Z,1014.97
2017-05-20T11:12:50.535Z,1014.96
2017-05-20T11:13:50.544Z,1014.97
2017-05-20T11:14:50.552Z,1014.96
2017-05-20T11:15:50.561Z,1014.97
2017-05-20T11:16:50.571Z,1015.02
2017-05-20T11:17:50.579Z,1015.04
2017-05-20T11:18:50.588Z,1015.01
2017-05-20T11:19:50.646Z,1015.02
2017-05-20T11:20:50.606Z,1015.07
2017-05-20T11:21:50.613Z,1015.07
2017-05-20T11:22:50.621Z,1015
2017-05-20T11:23:50.630Z,1015.02
2017-05-20T11:24:50.641Z,1015.04
2017-05-20T11:25:50.647Z,1015.03
2017-05-20T11:26:50.656Z,1015.04
2017-05-20T11:27:50.665Z,1015.04
2017-05-20T11:28:50.674Z,1015.06
2017-05-20T11:29:50.683Z,1015.07
2017-05-20T11:30:50.691Z,1015.08
2017-05-20T11:31:50.700Z,1015.11
2017-05-20T11:32:50.708Z,1015.13
2017-05-20T11:33:50.717Z,1015.15
2017-05-20T11:34:50.726Z,1015.14
2017-05-20T11:35:50.737Z,1015.16
2017-05-20T11:36:50.742Z,1015.18
2017-05-20T11:37:50.752Z,1015.13
2017-05-20T11:38:50.761Z,1015.12
2017-05-20T11:39:50.770Z,1015.14
2017-05-20T11:40:50.778Z,1015.21
2017-05-20T11:41:50.785Z,1015.21
2017-05-20T11:42:50.794Z,1015.27
2017-05-20T11:43:50.804Z,1015.3
2017-05-20T11:44:50.812Z,1015.28
2017-05-20T11:45:50.821Z,1015.27
2017-05-20T11:46:50.830Z,1015.25
2017-05-20T11:47:50.838Z,1015.25
2017-05-20T11:48:50.846Z,1015.27
2017-05-20T11:49:50.855Z,1015.22
2017-05-20T11:50:50.913Z,1015.23
2017-05-20T11:51:50.872Z,1015.18
2017-05-20T11:52:50.881Z,1015.2
2017-05-20T11:53:50.889Z,1015.27
2017-05-20T11:54:50.898Z,1015.22
2017-05-20T11:55:50.909Z,1015.29
2017-05-20T11:56:50.915Z,1015.27
2017-05-20T11:57:50.925Z,1015.28
2017-05-20T11:58:50.934Z,1015.36
2017-05-20T11:59:50.942Z,1015.33
2017-05-20T12:00:50.949Z,1015.34
2017-05-20T12:01:50.960Z,1015.39
2017-05-20T12:02:50.968Z,1015.36
2017-05-20T12:03:50.975Z,1015.4
2017-05-20T12:04:50.985Z,1015.43
2017-05-20T12:05:50.995Z,1015.46
2017-05-20T12:06:51.002Z,1015.4
2017-05-20T12:07:51.014Z,1015.36
2017-05-20T12:08:51.020Z,1015.43